GRVCE BIBD-BIIS
Flight info
| Callsign | GRVCE |
|---|---|
| Flight time | 0h 13m |
| Altitude | 10000 |
| Route | VFR |
| Aircraft | SC7/L-SC7A/A |
Departure
| Time | 2026-05-04 18:41 |
|---|---|
| Airport | Bildudalur Airport (BIBD) |
Arrival
| Time | 2026-05-04 18:55 |
|---|---|
| Airport | Ísafjörður Airport (BIIS) |
| Time | Latitude | Longitude | Altitude | Speed | Heading |
|---|---|---|---|---|---|
| 2026-05-04 18:36 | 65.64492 | -23.54365 | 149 ft | 0 kts | 298° |
| 2026-05-04 18:38 | 65.64487 | -23.54343 | 152 ft | 3 kts | 299° |
| 2026-05-04 18:38 | 65.64486 | -23.54337 | 152 ft | 0 kts | 297° |
| 2026-05-04 18:38 | 65.64486 | -23.54339 | 152 ft | 1 kts | 299° |
| 2026-05-04 18:39 | 65.64495 | -23.54329 | 153 ft | 5 kts | 71° |
| 2026-05-04 18:39 | 65.64407 | -23.54262 | 150 ft | 29 kts | 208° |
| 2026-05-04 18:39 | 65.64174 | -23.54553 | 141 ft | 43 kts | 206° |
| 2026-05-04 18:39 | 65.64000 | -23.54788 | 137 ft | 31 kts | 207° |
| 2026-05-04 18:40 | 65.63822 | -23.55021 | 130 ft | 14 kts | 176° |
| 2026-05-04 18:40 | 65.63837 | -23.54988 | 130 ft | 0 kts | 27° |
| 2026-05-04 18:41 | 65.63855 | -23.54966 | 129 ft | 31 kts | 27° |
| 2026-05-04 18:41 | 65.64343 | -23.54335 | 267 ft | 108 kts | 27° |
| 2026-05-04 18:41 | 65.65085 | -23.53346 | 646 ft | 139 kts | 28° |
| 2026-05-04 18:42 | 65.65976 | -23.52144 | 1329 ft | 151 kts | 30° |
| 2026-05-04 18:42 | 65.66883 | -23.50840 | 2205 ft | 153 kts | 28° |
| 2026-05-04 18:42 | 65.67807 | -23.49623 | 3092 ft | 148 kts | 27° |
| 2026-05-04 18:42 | 65.68718 | -23.48470 | 4006 ft | 147 kts | 25° |
| 2026-05-04 18:43 | 65.69652 | -23.47408 | 4896 ft | 150 kts | 21° |
| 2026-05-04 18:43 | 65.70622 | -23.46544 | 5852 ft | 142 kts | 16° |
| 2026-05-04 18:43 | 65.71541 | -23.45710 | 6836 ft | 143 kts | 23° |
| 2026-05-04 18:43 | 65.72428 | -23.44564 | 7686 ft | 146 kts | 26° |
| 2026-05-04 18:44 | 65.73309 | -23.43376 | 8555 ft | 149 kts | 27° |
| 2026-05-04 18:44 | 65.73951 | -23.42524 | 8776 ft | 168 kts | 27° |
| 2026-05-04 18:44 | 65.75416 | -23.40375 | 8775 ft | 196 kts | 31° |
| 2026-05-04 18:44 | 65.76585 | -23.38552 | 8747 ft | 202 kts | 31° |
| 2026-05-04 18:45 | 65.77763 | -23.36680 | 8710 ft | 203 kts | 32° |
| 2026-05-04 18:45 | 65.78943 | -23.34789 | 8679 ft | 203 kts | 32° |
| 2026-05-04 18:45 | 65.80124 | -23.32891 | 8644 ft | 203 kts | 32° |
| 2026-05-04 18:45 | 65.81301 | -23.30993 | 8617 ft | 203 kts | 32° |
| 2026-05-04 18:46 | 65.82476 | -23.29092 | 8602 ft | 203 kts | 32° |
| 2026-05-04 18:46 | 65.83656 | -23.27190 | 8571 ft | 203 kts | 32° |
| 2026-05-04 18:46 | 65.84835 | -23.25294 | 8541 ft | 203 kts | 32° |
| 2026-05-04 18:46 | 65.86013 | -23.23401 | 8506 ft | 202 kts | 32° |
| 2026-05-04 18:47 | 65.87127 | -23.21308 | 8470 ft | 202 kts | 39° |
| 2026-05-04 18:47 | 65.88169 | -23.18988 | 8447 ft | 203 kts | 42° |
| 2026-05-04 18:47 | 65.89189 | -23.16611 | 8429 ft | 203 kts | 43° |
| 2026-05-04 18:47 | 65.90221 | -23.14257 | 8340 ft | 203 kts | 37° |
| 2026-05-04 18:48 | 65.91424 | -23.12333 | 7998 ft | 209 kts | 29° |
| 2026-05-04 18:48 | 65.92719 | -23.10718 | 7661 ft | 209 kts | 25° |
| 2026-05-04 18:48 | 65.94039 | -23.09226 | 7315 ft | 208 kts | 24° |
| 2026-05-04 18:48 | 65.95362 | -23.07788 | 6974 ft | 207 kts | 23° |
| 2026-05-04 18:49 | 65.96681 | -23.06376 | 6642 ft | 206 kts | 23° |
| 2026-05-04 18:49 | 65.97995 | -23.04976 | 6272 ft | 205 kts | 23° |
| 2026-05-04 18:49 | 65.99301 | -23.03585 | 5913 ft | 204 kts | 23° |
| 2026-05-04 18:49 | 66.00604 | -23.02198 | 5558 ft | 204 kts | 23° |
| 2026-05-04 18:50 | 66.01899 | -23.00817 | 5204 ft | 202 kts | 23° |
| 2026-05-04 18:50 | 66.03190 | -22.99441 | 4856 ft | 202 kts | 23° |
| 2026-05-04 18:50 | 66.04476 | -22.98070 | 4500 ft | 200 kts | 23° |
| 2026-05-04 18:50 | 66.05726 | -22.96730 | 4143 ft | 193 kts | 23° |
| 2026-05-04 18:51 | 66.06766 | -22.95726 | 3770 ft | 137 kts | 10° |
| 2026-05-04 18:51 | 66.07684 | -22.95961 | 3412 ft | 131 kts | 350° |
| 2026-05-04 18:51 | 66.08568 | -22.96484 | 3063 ft | 131 kts | 338° |
| 2026-05-04 18:51 | 66.09122 | -22.98209 | 2721 ft | 137 kts | 283° |
| 2026-05-04 18:52 | 66.09142 | -23.00560 | 2373 ft | 138 kts | 269° |
| 2026-05-04 18:52 | 66.09078 | -23.02912 | 2040 ft | 138 kts | 262° |
| 2026-05-04 18:52 | 66.08793 | -23.05182 | 1648 ft | 140 kts | 249° |
| 2026-05-04 18:52 | 66.08425 | -23.06989 | 1283 ft | 105 kts | 244° |
| 2026-05-04 18:53 | 66.08139 | -23.08585 | 1053 ft | 106 kts | 258° |
| 2026-05-04 18:53 | 66.07902 | -23.10321 | 845 ft | 107 kts | 257° |
| 2026-05-04 18:53 | 66.07632 | -23.11996 | 729 ft | 105 kts | 256° |
| 2026-05-04 18:53 | 66.07380 | -23.13658 | 662 ft | 102 kts | 253° |
| 2026-05-04 18:54 | 66.07030 | -23.15179 | 605 ft | 103 kts | 242° |
| 2026-05-04 18:54 | 66.06697 | -23.16670 | 499 ft | 97 kts | 246° |
| 2026-05-04 18:54 | 66.06193 | -23.17672 | 442 ft | 93 kts | 198° |
| 2026-05-04 18:54 | 66.05646 | -23.17373 | 477 ft | 78 kts | 134° |
| 2026-05-04 18:55 | 66.05395 | -23.16257 | 374 ft | 75 kts | 98° |
| 2026-05-04 18:55 | 66.05654 | -23.14268 | 146 ft | 22 kts | 62° |
| 2026-05-04 18:55 | 66.05656 | -23.14223 | 146 ft | 8 kts | 225° |
| 2026-05-04 18:56 | 66.05580 | -23.14198 | 153 ft | 18 kts | 141° |
| 2026-05-04 18:56 | 66.05563 | -23.14197 | 152 ft | 0 kts | 232° |